Time;durP1;ratioP1;P1;durP2;ratioP2;P2;SDS_P1;SDS_P2;PMS_P1;PMS_P2;Temp;Humidity;BMP_temperature;BMP_pressure;BME280_temperature;BME280_humidity;BME280_pressure;Samples;Min_cycle;Max_cycle;Signal;HPM_P1;HPM_P2
2022/11/29 00:01:22;;;;;;;93.75;16.92;;;11.80;95.90;;;;;;5090543;28;20031;-58
2022/11/29 00:03:48;;;;;;;95.63;16.60;;;11.70;95.90;;;;;;5125809;28;20027;-57
2022/11/29 00:06:15;;;;;;;81.70;15.30;;;11.70;96.00;;;;;;5107697;28;20126;-57
2022/11/29 00:08:41;;;;;;;94.43;15.93;;;11.70;96.00;;;;;;5107205;28;20027;-58
2022/11/29 00:12:10;;;;;;;83.20;16.67;;;11.70;96.00;;;;;;5125570;28;20054;-58
2022/11/29 00:14:08;;;;;;;88.90;15.55;;;11.70;96.00;;;;;;5125445;28;20043;-58
2022/11/29 00:16:34;;;;;;;70.97;14.13;;;11.70;95.90;;;;;;5107210;28;20032;-57
2022/11/29 00:18:59;;;;;;;105.93;15.88;;;11.70;95.90;;;;;;5107241;28;20519;-58
2022/11/29 00:21:25;;;;;;;82.53;15.80;;;11.70;96.00;;;;;;5107042;28;20027;-57
2022/11/29 00:23:50;;;;;;;73.22;14.60;;;11.70;96.00;;;;;;5107214;28;20032;-58
2022/11/29 00:26:16;;;;;;;74.95;15.10;;;11.60;96.00;;;;;;5107101;28;20035;-57
2022/11/29 00:28:41;;;;;;;90.55;15.63;;;11.60;96.00;;;;;;5107120;28;20065;-57
2022/11/29 00:31:13;;;;;;;73.57;15.57;;;11.60;96.00;;;;;;5125286;28;20024;-57
2022/11/29 00:33:39;;;;;;;73.35;14.02;;;11.70;96.00;;;;;;5125356;28;20163;-58
2022/11/29 00:36:04;;;;;;;64.45;15.77;;;11.60;96.00;;;;;;5106716;28;20057;-57
2022/11/29 00:38:30;;;;;;;79.13;14.77;;;11.60;96.00;;;;;;5106883;28;20083;-57
2022/11/29 00:40:56;;;;;;;66.13;13.73;;;11.60;96.00;;;;;;5125275;28;20027;-57
2022/11/29 00:43:21;;;;;;;66.07;13.90;;;11.60;96.00;;;;;;5106865;28;20042;-57
2022/11/29 00:45:47;;;;;;;68.28;13.85;;;11.60;96.00;;;;;;5125077;28;20023;-57
2022/11/29 00:48:12;;;;;;;57.80;14.88;;;11.60;96.10;;;;;;5106894;28;20020;-57
2022/11/29 00:50:38;;;;;;;67.13;14.90;;;11.60;96.10;;;;;;5124983;28;20027;-57
2022/11/29 00:53:03;;;;;;;77.70;14.90;;;11.60;96.10;;;;;;5106872;28;20100;-57
2022/11/29 00:55:29;;;;;;;75.13;14.50;;;11.60;96.10;;;;;;5089806;28;20030;-57
2022/11/29 00:57:54;;;;;;;71.18;14.02;;;11.60;96.10;;;;;;5124467;28;20031;-57
2022/11/29 01:00:20;;;;;;;64.15;14.38;;;11.50;96.10;;;;;;5126914;28;20059;-57
2022/11/29 01:02:45;;;;;;;72.28;16.00;;;11.60;96.10;;;;;;5110991;28;20035;-58
2022/11/29 01:05:11;;;;;;;62.10;14.63;;;11.60;96.10;;;;;;5110632;28;20039;-57
2022/11/29 01:07:36;;;;;;;70.20;13.90;;;11.60;96.10;;;;;;5129335;28;20055;-57
2022/11/29 01:10:02;;;;;;;53.20;13.80;;;11.50;96.10;;;;;;5129057;28;20032;-57
2022/11/29 01:12:28;;;;;;;67.32;14.55;;;11.50;96.10;;;;;;5110775;28;20073;-57
2022/11/29 01:14:53;;;;;;;73.15;14.73;;;11.50;96.10;;;;;;5110803;28;20032;-58
2022/11/29 01:17:19;;;;;;;62.72;14.25;;;11.50;96.10;;;;;;5110475;28;20040;-57
2022/11/29 01:19:44;;;;;;;58.53;13.85;;;11.50;96.10;;;;;;5110408;28;20027;-57
2022/11/29 01:22:10;;;;;;;69.35;14.48;;;11.50;96.40;;;;;;5129024;28;20026;-58
2022/11/29 01:24:35;;;;;;;59.38;12.48;;;11.50;96.10;;;;;;5110579;28;20032;-58
2022/11/29 01:27:01;;;;;;;58.60;13.73;;;11.50;96.10;;;;;;5110323;28;20027;-57
2022/11/29 01:29:26;;;;;;;76.25;14.10;;;11.50;96.10;;;;;;5110455;28;20059;-57
2022/11/29 01:31:52;;;;;;;64.32;13.98;;;11.50;96.20;;;;;;5128827;28;20408;-57
2022/11/29 01:34:17;;;;;;;54.08;13.45;;;11.50;96.20;;;;;;5128719;28;20500;-57
2022/11/29 01:36:43;;;;;;;37.92;11.60;;;11.50;96.20;;;;;;5110053;28;20100;-57
2022/11/29 01:39:09;;;;;;;60.97;13.05;;;11.40;96.20;;;;;;5128603;28;20081;-57
2022/11/29 01:41:36;;;;;;;55.97;14.50;;;11.40;96.20;;;;;;5109961;28;20028;-57
2022/11/29 01:44:04;;;;;;;56.78;14.98;;;11.40;96.20;;;;;;5110342;28;20027;-57
2022/11/29 01:46:32;;;;;;;50.33;13.90;;;11.40;96.20;;;;;;5128501;28;20039;-58
2022/11/29 01:49:26;;;;;;;51.65;13.43;;;11.40;96.20;;;;;;5128539;28;20454;-57
2022/11/29 01:52:03;;;;;;;58.67;13.73;;;11.40;96.20;;;;;;5109820;28;20048;-57
2022/11/29 01:54:30;;;;;;;58.20;14.10;;;11.40;96.20;;;;;;5110095;28;20051;-57
2022/11/29 01:56:56;;;;;;;41.25;13.10;;;11.40;96.30;;;;;;5110198;28;20028;-58
2022/11/29 01:59:22;;;;;;;47.03;13.23;;;11.40;96.30;;;;;;5109993;28;20409;-57
2022/11/29 02:01:48;;;;;;;56.35;13.32;;;11.40;96.30;;;;;;5109707;28;20027;-57
2022/11/29 02:04:14;;;;;;;44.78;12.65;;;11.40;96.30;;;;;;5109827;28;20522;-57
2022/11/29 02:06:39;;;;;;;41.60;11.85;;;11.40;96.40;;;;;;5092690;28;20031;-57
2022/11/29 02:09:17;;;;;;;39.85;12.85;;;11.30;96.30;;;;;;5109676;28;20032;-57
2022/11/29 02:11:52;;;;;;;46.65;13.02;;;11.30;96.30;;;;;;5091938;28;20038;-57
2022/11/29 02:14:52;;;;;;;52.50;12.90;;;11.30;96.30;;;;;;5128044;28;20243;-57
2022/11/29 02:17:56;;;;;;;52.30;12.20;;;11.30;96.30;;;;;;5112297;28;20081;-58
2022/11/29 02:20:59;;;;;;;39.75;12.25;;;11.30;96.30;;;;;;5127656;28;20402;-57
2022/11/29 02:24:19;;;;;;;36.30;12.27;;;11.30;96.30;;;;;;5127731;28;20039;-57
2022/11/29 02:27:03;;;;;;;50.90;11.95;;;11.30;96.30;;;;;;5102429;28;20042;-58
2022/11/29 02:29:41;;;;;;;38.47;12.07;;;11.30;96.40;;;;;;5127818;28;20027;-58
2022/11/29 02:32:21;;;;;;;50.30;12.35;;;11.30;96.40;;;;;;5127613;28;20437;-58
2022/11/29 02:34:57;;;;;;;38.08;10.98;;;11.30;96.40;;;;;;5127540;28;20087;-57
2022/11/29 02:37:53;;;;;;;34.95;11.43;;;11.30;96.40;;;;;;5092183;28;20023;-57
2022/11/29 02:41:01;;;;;;;41.03;11.20;;;11.30;96.40;;;;;;5111928;28;20437;-57
2022/11/29 02:43:45;;;;;;;49.97;12.38;;;11.30;96.40;;;;;;5109101;28;20269;-57
2022/11/29 02:46:40;;;;;;;48.80;12.30;;;11.30;96.30;;;;;;5108906;28;20020;-57
2022/11/29 02:49:43;;;;;;;47.80;12.98;;;11.30;96.30;;;;;;5111962;28;20031;-57
2022/11/29 02:52:44;;;;;;;30.92;11.40;;;11.30;96.40;;;;;;5108739;28;20088;-57
2022/11/29 02:55:18;;;;;;;46.35;12.32;;;11.30;96.70;;;;;;5111435;28;20103;-57
2022/11/29 02:58:07;;;;;;;41.63;11.93;;;11.30;96.90;;;;;;5108814;28;20035;-57
2022/11/29 03:00:32;;;;;;;51.65;12.07;;;11.30;97.00;;;;;;5126960;28;20034;-57
2022/11/29 03:03:04;;;;;;;37.88;11.80;;;11.30;97.10;;;;;;5108678;28;20035;-57
2022/11/29 03:05:54;;;;;;;38.15;12.10;;;11.30;97.10;;;;;;5127173;28;20023;-57
2022/11/29 03:08:45;;;;;;;37.67;11.05;;;11.30;97.20;;;;;;5126973;28;20114;-57
2022/11/29 03:11:32;;;;;;;39.53;11.95;;;11.30;97.20;;;;;;5108598;28;20027;-57
2022/11/29 03:14:08;;;;;;;34.50;11.73;;;11.30;97.20;;;;;;5109655;28;20031;-58
2022/11/29 03:16:42;;;;;;;36.20;12.02;;;11.30;97.30;;;;;;5092243;28;20482;-57
2022/11/29 03:19:23;;;;;;;37.30;10.90;;;11.30;97.30;;;;;;5108716;28;20062;-57
2022/11/29 03:21:58;;;;;;;30.25;11.43;;;11.30;97.40;;;;;;5108532;28;20060;-57
2022/11/29 03:24:44;;;;;;;33.38;10.80;;;11.30;97.40;;;;;;5107646;28;20031;-57
2022/11/29 03:27:15;;;;;;;;;;;11.30;97.40;;;;;;5109004;28;20129;-57
2022/11/29 03:29:56;;;;;;;38.15;9.98;;;11.30;97.40;;;;;;5126835;28;19922;-57
2022/11/29 03:32:29;;;;;;;32.00;10.68;;;11.30;97.30;;;;;;5108834;28;20027;-57
2022/11/29 03:35:09;;;;;;;31.25;10.68;;;11.30;97.30;;;;;;5108226;28;20080;-57
2022/11/29 03:37:42;;;;;;;37.55;11.60;;;11.30;97.40;;;;;;5107725;28;20505;-58
2022/11/29 03:40:17;;;;;;;31.42;10.52;;;11.30;97.40;;;;;;5108196;28;20407;-58
2022/11/29 03:43:00;;;;;;;29.95;11.07;;;11.30;97.40;;;;;;5107795;28;20039;-57
2022/11/29 03:45:41;;;;;;;34.95;10.75;;;11.30;97.40;;;;;;5107806;28;20054;-57
2022/11/29 03:48:23;;;;;;;27.50;9.82;;;11.30;97.30;;;;;;5107666;28;20023;-57
2022/11/29 03:50:52;;;;;;;28.65;10.50;;;11.20;97.30;;;;;;5107740;28;20096;-57
2022/11/29 03:53:39;;;;;;;29.95;10.30;;;11.30;97.40;;;;;;5090602;28;20028;-58
2022/11/29 03:56:34;;;;;;;25.42;8.85;;;11.30;97.40;;;;;;5125943;28;20492;-57
2022/11/29 03:59:18;;;;;;;34.85;10.30;;;11.30;97.40;;;;;;5107819;28;20028;-57
2022/11/29 04:01:50;;;;;;;24.90;9.20;;;11.30;97.40;;;;;;5125584;28;20020;-57
2022/11/29 04:04:42;;;;;;;28.00;9.18;;;11.30;97.40;;;;;;5125914;28;20118;-57
2022/11/29 04:07:29;;;;;;;34.33;9.63;;;11.30;97.30;;;;;;5125602;28;20027;-57
2022/11/29 04:10:23;;;;;;;29.00;9.43;;;11.30;97.30;;;;;;5108755;28;20027;-58
2022/11/29 04:13:16;;;;;;;24.58;10.05;;;11.30;97.20;;;;;;5125611;28;20036;-58
2022/11/29 04:16:30;;;;;;;29.73;14.63;;;11.30;97.10;;;;;;5110160;28;20023;-57
2022/11/29 04:19:04;;;;;;;30.65;13.10;;;11.30;97.10;;;;;;5103542;28;20488;-57
2022/11/29 04:21:30;;;;;;;24.60;11.20;;;11.30;97.10;;;;;;5107362;28;20038;-58
2022/11/29 04:24:34;;;;;;;26.33;10.15;;;11.30;97.10;;;;;;5090175;28;20020;-57
2022/11/29 04:27:04;;;;;;;25.60;10.35;;;11.20;97.10;;;;;;5107094;28;20043;-57
2022/11/29 04:29:48;;;;;;;26.25;10.93;;;11.20;97.10;;;;;;5107326;28;20036;-57
2022/11/29 04:32:25;;;;;;;26.00;10.80;;;11.20;97.40;;;;;;5125408;28;20031;-58
2022/11/29 04:35:13;;;;;;;29.85;10.32;;;11.20;97.10;;;;;;5125319;28;20110;-57
2022/11/29 04:37:58;;;;;;;32.28;10.73;;;11.20;97.10;;;;;;5106727;28;20138;-57
2022/11/29 04:40:41;;;;;;;38.35;10.45;;;11.20;97.10;;;;;;5125266;28;20020;-57
2022/11/29 04:43:46;;;;;;;29.50;9.93;;;11.20;97.10;;;;;;5106838;28;20035;-58
2022/11/29 04:46:45;;;;;;;28.35;9.45;;;11.20;97.10;;;;;;5106990;28;20083;-58
2022/11/29 04:49:36;;;;;;;26.58;9.52;;;11.20;97.10;;;;;;5106553;28;20085;-58
2022/11/29 04:52:23;;;;;;;27.00;9.98;;;11.20;97.10;;;;;;5106788;28;20032;-57
2022/11/29 04:54:53;;;;;;;24.33;8.75;;;11.20;97.40;;;;;;5125087;28;20124;-57
2022/11/29 04:57:26;;;;;;;27.00;8.57;;;11.20;97.10;;;;;;5125262;28;20024;-57
2022/11/29 05:00:00;;;;;;;33.72;9.68;;;11.20;97.10;;;;;;5107037;28;20024;-57
2022/11/29 05:02:52;;;;;;;30.27;9.60;;;11.20;97.10;;;;;;5106542;28;20092;-57
2022/11/29 05:05:51;;;;;;;61.13;12.32;;;11.20;97.10;;;;;;5109426;28;20035;-57
2022/11/29 05:08:34;;;;;;;55.00;11.38;;;11.20;97.10;;;;;;5106985;28;20028;-57
2022/11/29 05:11:33;;;;;;;45.60;10.02;;;11.20;97.10;;;;;;5106732;28;20051;-58
2022/11/29 05:14:01;;;;;;;37.95;9.40;;;11.10;97.00;;;;;;5108566;28;20106;-57
2022/11/29 05:16:45;;;;;;;38.30;10.35;;;11.20;97.30;;;;;;5125028;28;20050;-57
2022/11/29 05:19:19;;;;;;;44.83;10.20;;;11.10;97.00;;;;;;5125340;28;20034;-57
2022/11/29 05:22:01;;;;;;;23.80;9.70;;;11.10;97.00;;;;;;5106490;28;20505;-57
2022/11/29 05:24:30;;;;;;;38.08;10.38;;;11.20;97.10;;;;;;5106801;28;20064;-57
2022/11/29 05:27:33;;;;;;;40.22;10.25;;;11.20;97.00;;;;;;5106837;28;20031;-57
2022/11/29 05:30:03;;;;;;;45.90;10.13;;;11.20;97.00;;;;;;5124903;28;20111;-58
2022/11/29 05:32:44;;;;;;;39.80;8.85;;;11.10;96.90;;;;;;5107397;28;20228;-57
2022/11/29 05:35:20;;;;;;;40.22;9.13;;;11.10;96.90;;;;;;5107509;28;20032;-57
2022/11/29 05:37:52;;;;;;;36.58;9.27;;;11.20;96.90;;;;;;5107251;28;20055;-57
2022/11/29 05:40:53;;;;;;;40.80;9.40;;;11.10;96.80;;;;;;5106834;28;20077;-57
2022/11/29 05:43:44;;;;;;;39.45;10.00;;;11.20;96.90;;;;;;5102563;28;20040;-57
2022/11/29 05:46:59;;;;;;;28.52;8.65;;;11.10;97.00;;;;;;5090282;28;20471;-57
2022/11/29 05:50:06;;;;;;;27.95;8.60;;;11.10;97.10;;;;;;5124256;28;20070;-57
2022/11/29 05:52:31;;;;;;;;;;;11.10;97.10;;;;;;5110542;28;20040;-58
2022/11/29 05:55:18;;;;;;;25.45;8.25;;;11.10;97.00;;;;;;5127405;28;19918;-57
2022/11/29 05:58:07;;;;;;;26.02;6.65;;;11.10;96.90;;;;;;5109890;28;20121;-57
2022/11/29 06:00:46;;;;;;;27.75;7.57;;;11.10;96.90;;;;;;5109661;28;20023;-57
2022/11/29 06:03:38;;;;;;;22.35;8.32;;;11.10;97.00;;;;;;5110593;28;20032;-57
2022/11/29 06:06:07;;;;;;;22.83;7.47;;;11.10;97.00;;;;;;5122130;28;20062;-57
2022/11/29 06:08:38;;;;;;;27.83;7.93;;;11.10;97.00;;;;;;5093183;28;20027;-57
2022/11/29 06:11:11;;;;;;;30.55;7.90;;;11.10;97.00;;;;;;5109662;28;20027;-57
2022/11/29 06:13:50;;;;;;;30.70;6.68;;;11.10;97.00;;;;;;5092647;28;20051;-57
2022/11/29 06:16:48;;;;;;;24.45;8.20;;;11.10;97.10;;;;;;5109418;28;20096;-57
2022/11/29 06:19:44;;;;;;;25.77;7.47;;;11.10;97.50;;;;;;5127853;28;20032;-57
2022/11/29 06:22:19;;;;;;;29.03;8.00;;;11.00;97.10;;;;;;5109516;28;20027;-57
2022/11/29 06:24:55;;;;;;;;;;;11.10;97.30;;;;;;5093831;28;20122;-57
2022/11/29 06:27:21;;;;;;;19.80;7.45;;;11.00;97.30;;;;;;5128037;28;19927;-57
2022/11/29 06:29:58;;;;;;;25.08;6.88;;;11.00;97.40;;;;;;5127620;28;20031;-57
2022/11/29 06:32:42;;;;;;;24.40;7.30;;;11.10;97.40;;;;;;5127740;28;20330;-57
2022/11/29 06:35:21;;;;;;;19.60;6.95;;;11.00;97.40;;;;;;5110863;28;20027;-57
2022/11/29 06:37:51;;;;;;;24.00;7.13;;;11.10;97.50;;;;;;5109685;28;20061;-57
2022/11/29 06:40:17;;;;;;;28.35;7.07;;;11.00;97.50;;;;;;5109212;28;20026;-57
2022/11/29 06:42:42;;;;;;;30.77;7.60;;;11.00;97.60;;;;;;5109055;28;20059;-57
2022/11/29 06:45:12;;;;;;;23.30;6.50;;;11.00;97.60;;;;;;5127349;28;20020;-57
2022/11/29 06:48:04;;;;;;;25.25;6.82;;;11.00;97.50;;;;;;5109132;28;20150;-57
2022/11/29 06:50:45;;;;;;;22.92;6.20;;;11.00;97.40;;;;;;5121170;28;20511;-57
2022/11/29 06:53:33;;;;;;;24.30;6.93;;;11.00;97.30;;;;;;5109517;28;20028;-57
2022/11/29 06:56:25;;;;;;;17.10;6.40;;;11.00;97.30;;;;;;5108946;28;20461;-57
2022/11/29 06:59:12;;;;;;;20.45;5.97;;;11.00;97.30;;;;;;5108312;28;20457;-57
2022/11/29 07:01:49;;;;;;;22.70;6.43;;;11.00;97.20;;;;;;5109012;28;20084;-58
2022/11/29 07:04:44;;;;;;;26.10;6.38;;;11.00;97.20;;;;;;5126976;28;20043;-57
2022/11/29 07:07:14;;;;;;;21.58;6.28;;;11.00;97.20;;;;;;5108946;28;20024;-57
2022/11/29 07:09:40;;;;;;;18.52;6.22;;;11.00;97.20;;;;;;5125673;28;20039;-56
2022/11/29 07:12:06;;;;;;;17.30;5.57;;;11.00;97.20;;;;;;5108416;28;20081;-57
2022/11/29 07:14:32;;;;;;;20.52;5.88;;;11.00;97.10;;;;;;5107257;28;20031;-57
2022/11/29 07:17:41;;;;;;;13.55;5.40;;;11.00;97.10;;;;;;5106814;28;20039;-57
2022/11/29 07:20:31;;;;;;;17.20;5.22;;;11.00;97.10;;;;;;5080631;28;20095;-57
2022/11/29 07:23:13;;;;;;;25.00;5.63;;;11.00;97.10;;;;;;5125855;28;20024;-57
2022/11/29 07:25:57;;;;;;;15.23;5.80;;;11.00;97.10;;;;;;5107350;28;20039;-57
2022/11/29 07:28:36;;;;;;;14.32;5.68;;;11.00;97.10;;;;;;5125418;28;20110;-57
2022/11/29 07:31:13;;;;;;;18.60;5.13;;;10.90;97.10;;;;;;5096952;28;20062;-57
2022/11/29 07:34:03;;;;;;;20.80;5.47;;;10.90;97.10;;;;;;5098962;28;20054;-58
2022/11/29 07:36:40;;;;;;;17.88;4.70;;;10.90;97.00;;;;;;5090081;28;20047;-58
2022/11/29 07:39:29;;;;;;;16.45;5.07;;;10.90;97.00;;;;;;5087913;28;20089;-57
2022/11/29 07:42:26;;;;;;;18.25;4.90;;;10.90;97.00;;;;;;5087235;28;20039;-57
2022/11/29 07:45:05;;;;;;;15.38;5.20;;;10.90;97.00;;;;;;5090418;28;20020;-57
2022/11/29 07:47:31;;;;;;;21.02;4.72;;;10.90;97.00;;;;;;5087686;28;20058;-57
2022/11/29 07:49:56;;;;;;;15.77;4.30;;;10.90;97.00;;;;;;5070529;28;20465;-57
2022/11/29 07:52:22;;;;;;;22.15;5.00;;;10.90;97.00;;;;;;5105620;28;20028;-57
2022/11/29 07:54:48;;;;;;;19.70;5.13;;;10.90;97.00;;;;;;5070714;28;20161;-57
2022/11/29 07:57:13;;;;;;;14.52;4.60;;;10.90;97.00;;;;;;5070606;28;20025;-58
2022/11/29 07:59:39;;;;;;;24.58;5.20;;;10.90;97.00;;;;;;5087202;28;20032;-57
2022/11/29 08:02:04;;;;;;;14.15;5.28;;;10.90;97.10;;;;;;5087151;28;20024;-57
2022/11/29 08:04:30;;;;;;;11.10;4.40;;;10.90;97.10;;;;;;5105591;28;20028;-58
2022/11/29 08:06:59;;;;;;;19.38;5.28;;;10.90;97.10;;;;;;5105155;28;20047;-57
2022/11/29 08:09:24;;;;;;;23.67;4.85;;;10.90;97.10;;;;;;5105153;28;20528;-57
2022/11/29 08:11:50;;;;;;;11.73;4.45;;;10.90;97.10;;;;;;5105605;28;20028;-57
2022/11/29 08:14:15;;;;;;;17.58;4.75;;;10.90;97.20;;;;;;5104974;28;20031;-57
2022/11/29 08:16:41;;;;;;;15.15;4.55;;;10.90;97.00;;;;;;5105238;28;20056;-57
2022/11/29 08:19:07;;;;;;;25.73;5.20;;;10.90;97.10;;;;;;5087182;28;20495;-57
2022/11/29 08:21:32;;;;;;;18.25;5.13;;;10.90;97.10;;;;;;5070159;28;20037;-57
2022/11/29 08:23:58;;;;;;;16.77;4.47;;;11.00;97.10;;;;;;5105080;28;20076;-57
2022/11/29 08:26:23;;;;;;;23.90;5.13;;;10.90;97.00;;;;;;5105210;28;20024;-57
2022/11/29 08:28:52;;;;;;;16.17;4.43;;;11.00;97.00;;;;;;5105012;28;20092;-57
2022/11/29 08:31:19;;;;;;;29.52;5.93;;;11.00;96.90;;;;;;5070965;28;20096;-57
2022/11/29 08:33:44;;;;;;;32.00;5.60;;;11.00;96.90;;;;;;5086854;28;20057;-57
2022/11/29 08:36:12;;;;;;;37.35;6.43;;;11.00;96.80;;;;;;5104598;28;20095;-57
2022/11/29 08:38:38;;;;;;;60.80;9.35;;;11.00;96.80;;;;;;5086980;28;20052;-57
2022/11/29 08:41:05;;;;;;;40.38;6.95;;;11.10;96.90;;;;;;5070010;28;20028;-57
2022/11/29 08:43:30;;;;;;;48.08;7.43;;;11.00;96.90;;;;;;5104961;28;20039;-57
2022/11/29 08:45:56;;;;;;;41.00;7.32;;;11.10;96.90;;;;;;5105103;28;20442;-57
2022/11/29 08:48:22;;;;;;;28.27;5.70;;;11.00;96.90;;;;;;5069885;28;20066;-57
2022/11/29 08:50:48;;;;;;;37.45;7.60;;;11.10;96.90;;;;;;5086515;28;20020;-57
2022/11/29 08:55:58;;;;;;;50.65;8.00;;;11.10;96.80;;;;;;5104684;28;20050;-57
2022/11/29 08:58:24;;;;;;;56.30;8.75;;;11.10;96.80;;;;;;5086550;28;20024;-57
2022/11/29 09:00:50;;;;;;;45.10;8.38;;;11.10;96.80;;;;;;5104618;28;20028;-57
2022/11/29 09:06:13;;;;;;;88.03;10.85;;;11.10;96.90;;;;;;5088851;28;20041;-57
2022/11/29 09:08:42;;;;;;;90.63;12.60;;;11.20;97.00;;;;;;5085968;28;20044;-57
2022/11/29 09:11:12;;;;;;;58.25;8.38;;;11.20;97.00;;;;;;5104636;28;20039;-57
2022/11/29 09:13:38;;;;;;;85.30;11.80;;;11.20;96.90;;;;;;5086852;28;20024;-57
2022/11/29 09:16:11;;;;;;;49.22;7.68;;;11.20;96.80;;;;;;5069696;28;20130;-57
2022/11/29 09:18:37;;;;;;;70.15;10.07;;;11.20;96.60;;;;;;5086819;28;20089;-57
2022/11/29 09:21:12;;;;;;;68.10;8.57;;;11.20;96.70;;;;;;5086264;28;20028;-57
2022/11/29 09:23:38;;;;;;;53.55;8.32;;;11.20;96.70;;;;;;5090083;28;20040;-57
2022/11/29 09:26:04;;;;;;;90.10;11.95;;;11.30;96.60;;;;;;5073240;28;20020;-57
2022/11/29 09:28:30;;;;;;;84.72;11.75;;;11.30;96.60;;;;;;5108291;28;20434;-57
2022/11/29 09:30:55;;;;;;;73.18;10.23;;;11.30;96.60;;;;;;5072854;28;20031;-57
2022/11/29 09:33:21;;;;;;;82.88;10.85;;;11.30;96.70;;;;;;5072901;28;20043;-57
2022/11/29 09:35:46;;;;;;;101.80;11.38;;;11.30;96.60;;;;;;5089713;28;20049;-57
2022/11/29 09:38:12;;;;;;;104.65;13.15;;;11.30;96.60;;;;;;5090017;28;20377;-57
2022/11/29 09:40:41;;;;;;;65.05;8.85;;;11.30;96.60;;;;;;5108102;28;20024;-58
2022/11/29 09:43:22;;;;;;;81.82;11.07;;;11.40;96.50;;;;;;5073526;28;20040;-57
2022/11/29 09:45:49;;;;;;;69.07;9.55;;;11.40;96.50;;;;;;5108031;28;20045;-57
2022/11/29 09:48:35;;;;;;;80.85;10.75;;;11.40;96.50;;;;;;5089604;28;20039;-57
2022/11/29 09:51:21;;;;;;;;;;;11.40;96.50;;;;;;5074051;28;20036;-57
2022/11/29 09:54:18;;;;;;;131.43;14.30;;;11.40;96.60;;;;;;5108711;28;19912;-58
2022/11/29 09:56:45;;;;;;;124.32;15.65;;;11.50;96.60;;;;;;5128081;28;20037;-57
2022/11/29 09:59:21;;;;;;;121.10;14.85;;;11.50;96.60;;;;;;5109894;28;20027;-57
2022/11/29 10:01:56;;;;;;;124.10;15.05;;;11.50;96.70;;;;;;5110076;28;20024;-57
2022/11/29 10:04:27;;;;;;;100.13;15.00;;;11.50;96.70;;;;;;5109812;28;20024;-58
2022/11/29 10:07:02;;;;;;;108.38;13.77;;;11.50;96.80;;;;;;5109432;28;20040;-58
2022/11/29 10:09:37;;;;;;;117.35;15.20;;;11.50;96.70;;;;;;5109746;28;20027;-57
2022/11/29 10:12:14;;;;;;;129.40;14.30;;;11.50;96.70;;;;;;5110694;28;20121;-57
2022/11/29 10:14:50;;;;;;;129.18;16.48;;;11.60;96.70;;;;;;5127602;28;20045;-58
2022/11/29 10:17:35;;;;;;;129.05;15.15;;;11.60;96.70;;;;;;5109708;28;20107;-57
2022/11/29 10:20:13;;;;;;;117.40;13.75;;;11.60;96.70;;;;;;5109359;28;20024;-58
2022/11/29 10:22:40;;;;;;;117.55;14.77;;;11.60;96.70;;;;;;5110363;28;20019;-57
2022/11/29 10:25:07;;;;;;;98.43;13.95;;;11.60;96.80;;;;;;5127582;28;20028;-57
2022/11/29 10:27:32;;;;;;;98.38;13.05;;;11.70;96.80;;;;;;5109185;28;20034;-57
2022/11/29 10:29:59;;;;;;;122.38;16.20;;;11.70;96.80;;;;;;5092164;28;20465;-57
2022/11/29 10:32:29;;;;;;;177.18;19.92;;;11.70;96.80;;;;;;5109011;28;20365;-57
2022/11/29 10:34:57;;;;;;;137.55;16.73;;;11.70;96.70;;;;;;5109471;28;20053;-57
2022/11/29 10:37:22;;;;;;;98.18;13.38;;;11.70;96.70;;;;;;5092106;28;20024;-58
2022/11/29 10:40:10;;;;;;;107.47;15.00;;;11.80;96.80;;;;;;5091861;28;20034;-57
2022/11/29 10:42:48;;;;;;;153.88;15.88;;;11.70;96.70;;;;;;5108537;28;20069;-57
2022/11/29 10:45:36;;;;;;;123.63;15.38;;;11.80;96.70;;;;;;5093077;28;20035;-57
2022/11/29 10:48:16;;;;;;;135.40;16.58;;;11.80;96.70;;;;;;5109205;28;20039;-57
2022/11/29 10:50:43;;;;;;;137.55;16.35;;;11.80;96.70;;;;;;5108292;28;20042;-57
2022/11/29 10:53:21;;;;;;;115.20;15.07;;;11.80;96.80;;;;;;5108923;28;20047;-57
2022/11/29 10:56:08;;;;;;;127.97;15.25;;;11.90;96.80;;;;;;5108199;28;20043;-57
2022/11/29 10:58:34;;;;;;;114.40;14.75;;;11.90;96.70;;;;;;5108288;28;20110;-57
2022/11/29 11:01:06;;;;;;;77.60;10.45;;;11.90;96.40;;;;;;5107754;28;20110;-58
2022/11/29 11:03:34;;;;;;;80.70;10.60;;;11.90;96.30;;;;;;5108092;28;20024;-58
2022/11/29 11:06:13;;;;;;;150.30;18.05;;;11.90;96.20;;;;;;5126329;28;20049;-57
2022/11/29 11:08:41;;;;;;;120.85;16.13;;;11.90;96.20;;;;;;5091128;28;20091;-58
2022/11/29 11:11:07;;;;;;;99.75;13.98;;;12.00;96.30;;;;;;5108046;28;20416;-57
2022/11/29 11:13:32;;;;;;;99.70;14.88;;;12.00;96.60;;;;;;5107892;28;20028;-58
2022/11/29 11:16:15;;;;;;;119.85;13.15;;;12.00;96.60;;;;;;5108079;28;20024;-57
2022/11/29 11:18:41;;;;;;;115.10;14.38;;;12.00;96.60;;;;;;5107853;28;20111;-57
2022/11/29 11:21:11;;;;;;;104.13;13.13;;;12.00;96.50;;;;;;5107876;28;20032;-58
2022/11/29 11:23:42;;;;;;;139.73;16.65;;;12.10;96.50;;;;;;5090518;28;20051;-57
2022/11/29 11:26:12;;;;;;;117.55;12.68;;;12.10;96.40;;;;;;5107548;28;20024;-57
2022/11/29 11:28:43;;;;;;;79.97;11.35;;;12.10;96.30;;;;;;5107388;28;20035;-57
2022/11/29 11:31:09;;;;;;;78.78;9.93;;;12.10;96.20;;;;;;5107109;28;20390;-57
2022/11/29 11:33:42;;;;;;;62.47;9.63;;;12.10;95.70;;;;;;5107766;28;20031;-58
2022/11/29 11:36:11;;;;;;;95.05;12.35;;;12.10;95.70;;;;;;5107283;28;20111;-57
2022/11/29 11:38:38;;;;;;;105.68;12.80;;;12.20;95.70;;;;;;5106910;28;20027;-58
2022/11/29 11:41:15;;;;;;;109.10;13.90;;;12.20;95.80;;;;;;5088849;28;20261;-58
2022/11/29 11:43:41;;;;;;;82.88;12.60;;;12.20;95.90;;;;;;5089440;28;20027;-58
2022/11/29 11:46:06;;;;;;;95.93;12.13;;;12.20;95.90;;;;;;5087828;28;20119;-57
2022/11/29 11:48:32;;;;;;;106.75;13.20;;;12.20;95.90;;;;;;5096665;28;20028;-58
2022/11/29 11:50:59;;;;;;;72.28;11.10;;;12.20;96.00;;;;;;5099853;28;20035;-58
2022/11/29 11:53:28;;;;;;;89.78;12.07;;;12.20;95.90;;;;;;5105729;28;20085;-58
2022/11/29 11:55:57;;;;;;;92.35;12.82;;;12.30;95.60;;;;;;5105743;28;20023;-58
2022/11/29 11:58:23;;;;;;;93.13;12.02;;;12.30;95.60;;;;;;5123468;28;20031;-57
2022/11/29 12:00:53;;;;;;;107.25;13.57;;;12.30;95.60;;;;;;5105183;28;20110;-58
2022/11/29 12:03:31;;;;;;;105.70;14.05;;;12.30;95.70;;;;;;5104584;28;20023;-57
2022/11/29 12:06:04;;;;;;;75.50;11.25;;;12.30;95.70;;;;;;5112177;28;20087;-57
2022/11/29 12:08:30;;;;;;;82.97;11.95;;;12.30;95.70;;;;;;5121859;28;20019;-58
2022/11/29 12:10:59;;;;;;;97.72;13.82;;;12.40;95.70;;;;;;5104261;28;20091;-58
2022/11/29 12:13:27;;;;;;;94.80;12.55;;;12.40;95.70;;;;;;5092086;28;20044;-58
2022/11/29 12:15:53;;;;;;;97.85;11.93;;;12.40;95.60;;;;;;5098170;28;20062;-58
2022/11/29 12:18:39;;;;;;;63.30;10.82;;;12.40;95.30;;;;;;5079951;28;20039;-57
2022/11/29 12:21:15;;;;;;;89.82;12.43;;;12.40;95.20;;;;;;5093379;28;20091;-57
2022/11/29 12:23:55;;;;;;;109.60;13.15;;;12.40;95.10;;;;;;5096234;28;20042;-58
2022/11/29 12:26:25;;;;;;;113.53;12.50;;;12.40;95.30;;;;;;5111197;28;20024;-58
2022/11/29 12:28:51;;;;;;;89.32;12.68;;;12.40;95.30;;;;;;5088579;28;20024;-57
2022/11/29 12:31:35;;;;;;;87.35;12.82;;;12.50;95.40;;;;;;5098645;28;20116;-58
2022/11/29 12:34:13;;;;;;;68.15;11.00;;;12.50;95.40;;;;;;5108003;28;20020;-57
2022/11/29 12:37:05;;;;;;;83.05;11.00;;;12.40;95.30;;;;;;5123960;28;20036;-58
2022/11/29 12:39:46;;;;;;;112.95;12.40;;;12.50;95.10;;;;;;5106449;28;20020;-57
2022/11/29 12:42:23;;;;;;;91.25;11.50;;;12.50;95.00;;;;;;5123688;28;20034;-57
2022/11/29 12:45:10;;;;;;;74.50;10.63;;;12.50;95.00;;;;;;5123776;28;20020;-58
2022/11/29 12:47:58;;;;;;;82.88;11.65;;;12.50;95.00;;;;;;5118585;28;20036;-58
2022/11/29 12:50:45;;;;;;;74.03;9.77;;;12.50;94.80;;;;;;5093566;28;20024;-57
2022/11/29 12:53:22;;;;;;;71.15;10.18;;;12.60;94.80;;;;;;5111178;28;20039;-57
2022/11/29 12:55:48;;;;;;;79.57;10.63;;;12.50;94.80;;;;;;5081082;28;20032;-57
2022/11/29 12:58:30;;;;;;;142.82;17.20;;;12.50;94.70;;;;;;5088621;28;20388;-57
2022/11/29 13:01:26;;;;;;;113.85;15.52;;;12.60;94.70;;;;;;5091889;28;20134;-58
2022/11/29 13:04:24;;;;;;;85.63;11.43;;;12.60;94.70;;;;;;5090326;28;20016;-57
2022/11/29 13:07:17;;;;;;;66.20;11.25;;;12.60;94.70;;;;;;5089476;28;20047;-57
2022/11/29 13:10:19;;;;;;;86.90;10.52;;;12.60;94.70;;;;;;5107186;28;20024;-57
2022/11/29 13:12:52;;;;;;;93.72;11.30;;;12.60;94.70;;;;;;5084720;28;20031;-57
2022/11/29 13:15:20;;;;;;;86.43;11.38;;;12.60;94.50;;;;;;5094553;28;20020;-57
2022/11/29 13:17:59;;;;;;;92.60;11.02;;;12.60;94.50;;;;;;5091515;28;20032;-58
2022/11/29 13:20:31;;;;;;;76.70;10.55;;;12.70;94.50;;;;;;5096358;28;20026;-58